Time;durP1;ratioP1;P1;durP2;ratioP2;P2;SDS_P1;SDS_P2;PMS_P1;PMS_P2;Temp;Humidity;BMP_temperature;BMP_pressure;BME280_temperature;BME280_humidity;BME280_pressure;Samples;Min_cycle;Max_cycle;Signal;HPM_P1;HPM_P2
2022/10/13 00:00:44;;;;;;;11.43;8.50;;;12.90;99.90;14.10;97489.00;;;;5071611;28;20215;-87
2022/10/13 00:03:33;;;;;;;9.13;8.23;;;12.80;99.90;13.60;97484.00;;;;5071785;28;20266;-87
2022/10/13 00:06:24;;;;;;;10.30;9.30;;;12.70;99.90;13.50;97486.00;;;;5083610;28;20814;-87
2022/10/13 00:09:13;;;;;;;13.23;8.60;;;12.60;99.90;13.40;97496.00;;;;5078366;28;20256;-86
2022/10/13 00:12:03;;;;;;;12.60;8.87;;;12.50;99.90;13.20;97495.00;;;;5087719;28;20905;-87
2022/10/13 00:14:52;;;;;;;12.90;9.43;;;12.30;99.90;13.50;97491.00;;;;5085626;28;20249;-87
2022/10/13 00:17:41;;;;;;;13.85;10.30;;;12.20;99.90;13.60;97484.00;;;;5092763;28;20584;-87
2022/10/13 00:20:30;;;;;;;11.00;9.80;;;12.30;99.90;13.60;97488.00;;;;5076289;28;20418;-86
2022/10/13 00:23:19;;;;;;;11.73;9.23;;;12.20;99.90;13.40;97487.00;;;;5084748;28;20350;-87
2022/10/13 00:26:10;;;;;;;13.10;9.47;;;12.20;99.90;13.40;97483.00;;;;5085522;28;20292;-87
2022/10/13 00:29:00;;;;;;;18.30;10.13;;;12.10;99.90;13.10;97487.00;;;;5078392;28;20211;-87
2022/10/13 00:31:49;;;;;;;12.90;10.30;;;12.10;99.90;13.20;97485.00;;;;5072647;28;20236;-87
2022/10/13 00:34:38;;;;;;;13.40;9.90;;;12.00;99.90;13.20;97497.00;;;;5085082;28;20238;-87
2022/10/13 00:37:27;;;;;;;15.13;10.03;;;11.90;99.90;13.10;97485.00;;;;5082135;28;20252;-86
2022/10/13 00:40:16;;;;;;;15.40;9.50;;;11.90;99.90;13.00;97474.00;;;;5082335;28;20345;-86
2022/10/13 00:43:08;;;;;;;16.33;10.43;;;11.80;99.90;12.80;97471.00;;;;5073554;28;20227;-86
2022/10/13 00:45:59;;;;;;;14.57;10.27;;;11.80;99.90;12.90;97476.00;;;;5084628;28;20206;-86
2022/10/13 00:48:49;;;;;;;10.87;9.77;;;11.70;99.90;13.00;97476.00;;;;5074877;28;20195;-86
2022/10/13 00:51:42;;;;;;;14.80;10.67;;;11.70;99.90;12.80;97474.00;;;;5079693;28;20246;-86
2022/10/13 00:54:32;;;;;;;12.30;11.07;;;11.60;99.90;12.60;97474.00;;;;5071906;28;20211;-87
2022/10/13 00:57:21;;;;;;;13.10;10.53;;;11.60;99.90;12.20;97468.00;;;;5071922;28;20263;-87
2022/10/13 01:00:12;;;;;;;16.37;10.80;;;11.40;99.90;12.30;97464.00;;;;5072106;28;20257;-86
2022/10/13 01:03:02;;;;;;;13.50;10.77;;;11.30;99.90;12.20;97467.00;;;;5070787;28;20220;-87
2022/10/13 01:05:55;;;;;;;14.10;10.93;;;11.20;99.90;11.80;97459.00;;;;5072745;28;20281;-86
2022/10/13 01:08:44;;;;;;;11.83;9.93;;;11.10;99.90;12.10;97466.00;;;;5071479;28;20677;-86
2022/10/13 01:11:51;;;;;;;15.20;11.40;;;11.00;99.90;12.20;97467.00;;;;5082420;28;20218;-87
2022/10/13 01:14:51;;;;;;;19.20;12.43;;;11.00;99.90;12.40;97464.00;;;;5081398;28;20210;-87
2022/10/13 01:17:52;;;;;;;20.33;12.43;;;11.00;99.90;12.50;97455.00;;;;5079080;28;20199;-86
2022/10/13 01:21:06;;;;;;;25.97;12.03;;;11.10;99.90;12.50;97452.00;;;;5069345;28;20699;-86
2022/10/13 01:24:44;;;;;;;14.53;12.30;;;11.10;99.90;12.10;97452.00;;;;5078764;28;20768;-86
2022/10/13 01:27:56;;;;;;;14.17;10.60;;;11.10;99.90;11.70;97452.00;;;;5072080;28;20734;-86
2022/10/13 01:30:49;;;;;;;14.60;12.40;;;11.00;99.90;11.70;97449.00;;;;5081412;28;20260;-86
2022/10/13 01:33:43;;;;;;;14.47;11.37;;;10.80;99.90;11.50;97447.00;;;;5088125;28;20199;-86
2022/10/13 01:36:43;;;;;;;14.27;11.57;;;10.70;99.90;11.70;97443.00;;;;5082377;28;20199;-86
2022/10/13 01:39:40;;;;;;;13.77;12.17;;;10.70;99.90;11.70;97446.00;;;;5076397;28;20199;-86
2022/10/13 01:42:39;;;;;;;18.53;13.17;;;10.60;99.90;11.70;97446.00;;;;5107411;23;20301;-68
2022/10/13 01:45:39;;;;;;;22.10;12.07;;;10.60;99.90;11.10;97438.00;;;;5097962;28;20252;-68
2022/10/13 01:48:29;;;;;;;15.57;12.37;;;10.50;99.90;11.50;97438.00;;;;5106420;22;20234;-70
2022/10/13 01:51:22;;;;;;;20.57;13.77;;;10.40;99.90;11.60;97437.00;;;;5088457;28;20195;-70
2022/10/13 01:54:11;;;;;;;15.30;12.20;;;10.40;99.90;11.50;97435.00;;;;5080575;28;20205;-70
2022/10/13 01:57:00;;;;;;;14.77;12.70;;;10.40;99.90;11.40;97431.00;;;;5082978;28;20212;-70
2022/10/13 01:59:49;;;;;;;15.67;11.40;;;10.30;99.90;11.20;97426.00;;;;5058112;28;20246;-70
2022/10/13 02:02:48;;;;;;;18.77;12.13;;;10.30;99.90;11.10;97427.00;;;;5063868;28;20234;-71
2022/10/13 02:05:48;;;;;;;15.30;13.27;;;10.20;99.90;10.80;97421.00;;;;5050319;28;20256;-71
2022/10/13 02:08:43;;;;;;;12.90;11.43;;;10.10;99.90;10.90;97427.00;;;;5049863;28;20277;-70
2022/10/13 02:11:32;;;;;;;14.70;12.17;;;10.00;99.90;10.90;97422.00;;;;5058472;28;20253;-70
2022/10/13 02:14:26;;;;;;;23.07;13.10;;;9.90;99.90;11.20;97422.00;;;;5060997;28;20200;-70
2022/10/13 02:17:16;;;;;;;22.37;13.53;;;9.90;99.90;11.30;97417.00;;;;5064730;28;20342;-70
2022/10/13 02:20:07;;;;;;;16.67;13.43;;;10.00;99.90;11.10;97419.00;;;;5049771;28;20275;-70
2022/10/13 02:23:02;;;;;;;22.43;13.97;;;10.00;99.90;11.10;97411.00;;;;5050990;28;20212;-70
2022/10/13 02:25:51;;;;;;;15.27;11.70;;;10.00;99.90;11.20;97425.00;;;;5055796;28;20227;-70
2022/10/13 02:28:40;;;;;;;18.00;12.80;;;10.00;99.90;11.30;97422.00;;;;5053376;28;20212;-70
2022/10/13 02:31:29;;;;;;;15.53;12.67;;;10.00;99.90;11.30;97423.00;;;;5056170;28;20207;-70
2022/10/13 02:34:18;;;;;;;16.40;12.13;;;10.10;99.90;11.00;97421.00;;;;5061714;28;20245;-70
2022/10/13 02:37:06;;;;;;;16.83;12.13;;;10.00;99.90;11.10;97426.00;;;;5063206;28;20312;-70
2022/10/13 02:39:56;;;;;;;20.77;13.80;;;10.00;99.90;11.10;97417.00;;;;5062942;28;20595;-71
2022/10/13 02:42:45;;;;;;;18.77;12.30;;;9.90;99.90;11.10;97424.00;;;;5051239;28;20200;-70
2022/10/13 02:45:34;;;;;;;21.67;13.67;;;9.90;99.90;11.20;97422.00;;;;5062266;28;20215;-70
2022/10/13 02:48:22;;;;;;;19.67;13.60;;;9.90;99.90;11.20;97427.00;;;;5058554;28;20220;-70
2022/10/13 02:51:11;;;;;;;27.20;14.97;;;9.90;99.90;11.20;97416.00;;;;5061264;28;20242;-70
2022/10/13 02:54:00;;;;;;;16.13;13.07;;;10.00;99.90;11.20;97416.00;;;;5054391;28;20294;-70
2022/10/13 02:56:50;;;;;;;19.83;12.67;;;10.00;99.90;10.90;97407.00;;;;5050303;28;20238;-70
2022/10/13 02:59:38;;;;;;;18.60;12.57;;;9.90;99.90;10.90;97413.00;;;;5053802;28;20273;-70
2022/10/13 03:02:28;;;;;;;14.43;11.67;;;9.90;99.90;10.60;97409.00;;;;5058053;28;20201;-70
2022/10/13 03:05:16;;;;;;;13.80;11.30;;;9.80;99.90;10.70;97405.00;;;;5063792;28;20653;-70
2022/10/13 03:08:06;;;;;;;20.10;12.40;;;9.70;99.90;10.70;97408.00;;;;5054048;28;20220;-70
2022/10/13 03:10:54;;;;;;;17.33;13.10;;;9.60;99.90;10.40;97412.00;;;;5056748;28;20200;-70
2022/10/13 03:13:44;;;;;;;16.70;13.10;;;9.60;99.90;10.10;97406.00;;;;5069488;28;20287;-70
2022/10/13 03:16:33;;;;;;;16.50;13.17;;;9.50;99.90;10.10;97403.00;;;;5080625;28;20269;-71
2022/10/13 03:19:22;;;;;;;24.50;13.73;;;9.30;99.90;10.10;97406.00;;;;5062062;28;20258;-71
2022/10/13 03:22:14;;;;;;;18.27;14.07;;;9.30;99.90;10.30;97413.00;;;;5049951;28;20211;-71
2022/10/13 03:25:03;;;;;;;25.23;12.87;;;9.30;99.90;10.10;97409.00;;;;5048574;28;20307;-71
2022/10/13 03:27:52;;;;;;;25.43;14.47;;;9.20;99.90;9.90;97409.00;;;;5049643;28;20275;-71
2022/10/13 03:30:42;;;;;;;16.50;12.57;;;9.10;99.90;9.70;97396.00;;;;5050348;28;20212;-70
2022/10/13 03:33:31;;;;;;;19.97;14.87;;;9.00;99.90;10.00;97403.00;;;;5051404;28;20702;-71
2022/10/13 03:36:19;;;;;;;19.30;14.57;;;9.00;99.90;9.90;97407.00;;;;5062903;28;20749;-70
2022/10/13 03:39:08;;;;;;;18.20;13.47;;;9.00;99.90;10.10;97401.00;;;;5054395;28;20201;-71
2022/10/13 03:41:57;;;;;;;18.80;13.10;;;9.00;99.90;10.10;97407.00;;;;5062656;28;20212;-71
2022/10/13 03:44:45;;;;;;;22.37;12.87;;;9.00;99.90;9.90;97407.00;;;;5050950;28;20204;-71
2022/10/13 03:47:36;;;;;;;25.00;14.37;;;8.90;99.90;9.90;97403.00;;;;5048539;28;20228;-71
2022/10/13 03:50:25;;;;;;;22.73;14.03;;;8.90;99.90;9.90;97401.00;;;;5059638;28;20978;-71
2022/10/13 03:53:14;;;;;;;25.03;13.33;;;8.90;99.90;10.00;97397.00;;;;5059642;28;20254;-71
2022/10/13 03:56:04;;;;;;;21.53;13.90;;;8.90;99.90;10.10;97398.00;;;;5060878;28;20205;-71
2022/10/13 03:58:54;;;;;;;19.37;12.93;;;8.90;99.90;9.90;97400.00;;;;5047290;28;20268;-71
2022/10/13 04:01:43;;;;;;;17.07;14.13;;;8.90;99.90;9.90;97395.00;;;;5050799;28;20228;-71
2022/10/13 04:04:34;;;;;;;18.93;13.60;;;8.90;99.90;10.10;97404.00;;;;5054459;28;20198;-71
2022/10/13 04:07:22;;;;;;;22.20;13.27;;;8.90;99.90;10.20;97402.00;;;;5062853;28;20220;-71
2022/10/13 04:10:11;;;;;;;16.73;13.97;;;8.90;99.90;9.90;97396.00;;;;5065243;28;20755;-71
2022/10/13 04:13:00;;;;;;;16.10;13.07;;;8.90;99.90;9.50;97393.00;;;;5074714;28;20253;-70
2022/10/13 04:15:48;;;;;;;25.03;14.63;;;8.80;99.90;9.50;97392.00;;;;5047486;28;20212;-71
2022/10/13 04:18:37;;;;;;;19.67;13.07;;;8.70;99.90;9.30;97387.00;;;;5069419;28;20213;-71
2022/10/13 04:21:32;;;;;;;18.80;14.10;;;8.60;99.90;9.30;97385.00;;;;5072602;28;20195;-71
2022/10/13 04:24:20;;;;;;;16.13;12.07;;;8.50;99.90;9.20;97391.00;;;;5074768;28;20231;-71
2022/10/13 04:27:10;;;;;;;17.57;13.43;;;8.50;99.90;9.30;97387.00;;;;5073092;28;20703;-71
2022/10/13 04:29:59;;;;;;;22.40;14.27;;;8.40;99.90;9.10;97388.00;;;;5065406;28;20200;-73
2022/10/13 04:32:48;;;;;;;18.87;13.53;;;8.40;99.90;9.10;97389.00;;;;5057731;28;20682;-71
2022/10/13 04:35:40;;;;;;;23.83;14.33;;;8.30;99.90;9.10;97390.00;;;;5049749;28;20245;-70
2022/10/13 04:38:30;;;;;;;20.70;13.60;;;8.30;99.90;9.10;97396.00;;;;5065498;28;20231;-70
2022/10/13 04:41:20;;;;;;;23.47;13.90;;;8.30;99.90;9.10;97391.00;;;;5061043;28;20744;-71
2022/10/13 04:44:09;;;;;;;24.87;14.93;;;8.30;99.90;9.20;97388.00;;;;5061576;28;20253;-71
2022/10/13 04:46:59;;;;;;;22.93;16.07;;;8.30;99.90;9.10;97389.00;;;;5066035;28;20259;-71
2022/10/13 04:49:48;;;;;;;19.27;14.23;;;8.30;99.90;9.00;97381.00;;;;5067767;28;20596;-71
2022/10/13 04:52:37;;;;;;;20.00;14.17;;;8.20;99.90;9.20;97393.00;;;;5070834;28;20197;-71
2022/10/13 04:55:27;;;;;;;20.50;14.33;;;8.20;99.90;9.10;97395.00;;;;5066797;28;20200;-71
2022/10/13 04:58:16;;;;;;;22.07;15.47;;;8.20;99.90;9.10;97396.00;;;;5058140;28;20751;-71
2022/10/13 05:01:07;;;;;;;22.67;14.30;;;8.20;99.90;9.10;97390.00;;;;5064240;28;20215;-71
2022/10/13 05:03:59;;;;;;;26.07;15.37;;;8.20;99.90;9.30;97393.00;;;;5076231;28;20216;-71
2022/10/13 05:06:47;;;;;;;21.90;14.67;;;8.20;99.90;9.50;97394.00;;;;5059842;28;20635;-71
2022/10/13 05:09:53;;;;;;;18.30;13.73;;;8.20;99.90;9.40;97392.00;;;;5068727;28;20202;-71
2022/10/13 05:12:43;;;;;;;17.63;14.47;;;8.30;99.90;9.40;97388.00;;;;5077061;28;20200;-71
2022/10/13 05:15:32;;;;;;;28.20;14.33;;;8.30;99.90;9.30;97401.00;;;;5065299;28;20196;-71
2022/10/13 05:18:20;;;;;;;18.93;14.20;;;8.30;99.90;9.50;97396.00;;;;5056061;28;20220;-71
2022/10/13 05:21:11;;;;;;;19.40;14.33;;;8.30;99.90;9.30;97402.00;;;;5050792;28;20238;-71
2022/10/13 05:24:01;;;;;;;26.53;16.73;;;8.30;99.90;9.00;97394.00;;;;5051973;28;20262;-70
2022/10/13 05:26:49;;;;;;;19.93;14.17;;;8.30;99.90;8.70;97399.00;;;;5070407;28;20224;-72
2022/10/13 05:29:40;;;;;;;18.57;14.67;;;8.20;99.90;8.90;97405.00;;;;5052382;28;20208;-71
2022/10/13 05:32:29;;;;;;;20.67;13.77;;;8.10;99.90;8.80;97396.00;;;;5061507;28;20599;-71
2022/10/13 05:35:18;;;;;;;19.40;13.13;;;8.10;99.90;8.30;97395.00;;;;5072804;28;20257;-72
2022/10/13 05:38:06;;;;;;;23.80;15.17;;;7.90;99.90;8.50;97390.00;;;;5065671;28;20257;-72
2022/10/13 05:40:55;;;;;;;22.73;15.70;;;7.90;99.90;8.70;97386.00;;;;5057456;28;20196;-70
2022/10/13 05:43:44;;;;;;;22.50;15.50;;;7.90;99.90;8.60;97400.00;;;;5057176;28;20271;-70
2022/10/13 05:46:34;;;;;;;21.87;14.73;;;7.90;99.90;8.60;97399.00;;;;5060693;28;20230;-70
2022/10/13 05:49:23;;;;;;;19.37;15.50;;;7.90;99.90;8.30;97401.00;;;;5063158;28;20269;-70
2022/10/13 05:52:13;;;;;;;22.53;15.83;;;7.80;99.90;8.50;97413.00;;;;5064100;28;20220;-69
2022/10/13 05:55:06;;;;;;;19.73;14.00;;;7.90;99.90;8.80;97403.00;;;;5061413;28;20209;-72
2022/10/13 05:57:54;;;;;;;19.33;14.63;;;7.90;99.90;8.90;97407.00;;;;5061947;28;20278;-72
2022/10/13 06:00:44;;;;;;;21.97;16.80;;;8.00;99.90;8.80;97407.00;;;;5061608;28;20199;-70
2022/10/13 06:03:34;;;;;;;22.47;15.37;;;8.00;99.90;8.80;97402.00;;;;5062532;28;20721;-70
2022/10/13 06:06:24;;;;;;;23.63;15.63;;;8.10;99.90;8.60;97400.00;;;;5061493;28;20305;-72
2022/10/13 06:09:15;;;;;;;23.47;15.10;;;8.00;99.90;8.80;97404.00;;;;5064201;28;20199;-72
2022/10/13 06:12:05;;;;;;;26.83;14.60;;;8.00;99.90;9.20;97411.00;;;;5058002;28;20207;-71
2022/10/13 06:14:54;;;;;;;27.60;16.83;;;8.10;99.90;9.40;97409.00;;;;5077096;28;20253;-71
2022/10/13 06:17:42;;;;;;;25.00;18.10;;;8.20;99.90;9.40;97412.00;;;;5062861;28;20220;-70
2022/10/13 06:20:33;;;;;;;26.63;16.00;;;8.30;99.90;9.20;97413.00;;;;5054071;28;20207;-71
2022/10/13 06:23:21;;;;;;;23.23;16.17;;;8.30;99.90;9.40;97411.00;;;;5061239;28;20277;-70
2022/10/13 06:26:10;;;;;;;25.63;17.50;;;8.40;99.90;9.70;97412.00;;;;5067732;28;20326;-70
2022/10/13 06:28:59;;;;;;;31.00;16.63;;;8.40;99.90;9.80;97418.00;;;;5064484;28;20215;-70
2022/10/13 06:31:47;;;;;;;22.27;16.77;;;8.50;99.90;9.50;97418.00;;;;5051162;28;20585;-71
2022/10/13 06:34:36;;;;;;;19.33;15.57;;;8.60;99.90;9.40;97415.00;;;;5055585;28;20200;-71
2022/10/13 06:37:26;;;;;;;27.43;15.93;;;8.60;99.90;9.80;97418.00;;;;5066071;28;20228;-71
2022/10/13 06:40:16;;;;;;;24.10;16.73;;;8.60;99.90;9.90;97408.00;;;;5063076;28;20694;-70
2022/10/13 06:43:04;;;;;;;25.63;17.43;;;8.70;99.90;9.90;97412.00;;;;5066263;28;20208;-71
2022/10/13 06:45:53;;;;;;;26.83;17.67;;;8.80;99.90;9.90;97407.00;;;;5050967;28;20204;-70
2022/10/13 06:48:42;;;;;;;30.67;16.30;;;8.90;99.90;9.90;97407.00;;;;5069598;28;20750;-70
2022/10/13 06:51:30;;;;;;;23.37;16.63;;;8.90;99.90;9.90;97409.00;;;;5069793;28;20591;-71
2022/10/13 06:54:21;;;;;;;22.53;16.60;;;8.90;99.90;10.00;97409.00;;;;5066117;28;20208;-71
2022/10/13 06:57:11;;;;;;;30.53;16.90;;;9.00;99.90;10.00;97404.00;;;;5048316;28;20231;-70
2022/10/13 06:59:59;;;;;;;35.93;18.70;;;9.00;99.90;10.20;97407.00;;;;5057966;28;20349;-69
2022/10/13 07:02:51;;;;;;;26.60;16.23;;;9.10;99.90;10.30;97401.00;;;;5064098;28;20886;-70
2022/10/13 07:05:40;;;;;;;27.73;17.23;;;9.20;99.90;10.30;97407.00;;;;5056072;28;20625;-70
2022/10/13 07:08:28;;;;;;;26.50;16.97;;;9.20;99.90;10.10;97412.00;;;;5062499;28;20261;-71
2022/10/13 07:11:18;;;;;;;23.13;17.17;;;9.30;99.90;10.30;97400.00;;;;5060835;28;20255;-71
2022/10/13 07:14:07;;;;;;;28.53;16.83;;;9.30;99.90;10.70;97401.00;;;;5055628;28;20207;-71
2022/10/13 07:16:56;;;;;;;24.40;17.53;;;9.50;99.90;10.80;97395.00;;;;5073182;28;20223;-70
2022/10/13 07:19:47;;;;;;;24.47;18.13;;;9.50;99.90;11.00;97395.00;;;;5048832;28;20254;-71
2022/10/13 07:22:36;;;;;;;30.60;18.47;;;9.70;99.90;11.10;97393.00;;;;5052123;28;20708;-70
2022/10/13 07:25:25;;;;;;;24.53;18.23;;;9.80;99.90;11.30;97386.00;;;;5061458;28;20217;-70
2022/10/13 07:28:15;;;;;;;22.33;16.03;;;9.90;99.90;11.30;97384.00;;;;5058072;28;20239;-71
2022/10/13 07:31:09;;;;;;;30.37;17.03;;;10.00;99.90;11.40;97385.00;;;;5052078;28;20189;-71
2022/10/13 07:34:01;;;;;;;30.83;21.58;;;10.10;99.90;11.30;97379.00;;;;5061715;28;20396;-71
2022/10/13 07:36:49;;;;;;;23.13;18.33;;;10.20;99.90;11.60;97384.00;;;;5059275;28;20196;-71
2022/10/13 07:39:38;;;;;;;34.20;17.17;;;10.40;99.90;11.80;97373.00;;;;5054469;28;20238;-70
2022/10/13 07:42:27;;;;;;;21.23;15.13;;;10.50;99.90;12.00;97369.00;;;;5058433;28;20219;-69
2022/10/13 07:45:17;;;;;;;26.17;16.30;;;10.60;99.90;12.00;97374.00;;;;5057184;28;20250;-70
2022/10/13 07:48:06;;;;;;;20.70;15.23;;;10.70;99.90;12.40;97376.00;;;;5054826;28;20309;-69
2022/10/13 07:50:55;;;;;;;20.07;13.63;;;11.10;99.90;12.60;97367.00;;;;5062024;28;20217;-70
2022/10/13 07:53:45;;;;;;;23.80;17.42;;;11.10;99.90;12.70;97363.00;;;;5061894;28;20414;-70
2022/10/13 07:56:34;;;;;;;19.33;14.73;;;11.20;99.90;12.80;97372.00;;;;5062773;28;20250;-70
2022/10/13 07:59:23;;;;;;;17.80;13.90;;;11.40;99.90;13.20;97364.00;;;;5054450;28;20236;-70
2022/10/13 08:02:13;;;;;;;21.15;16.55;;;11.50;99.90;13.40;97367.00;;;;5057776;28;20468;-70
2022/10/13 08:05:03;;;;;;;20.60;15.65;;;11.50;99.90;13.60;97363.00;;;;5068586;28;20541;-70
2022/10/13 08:07:52;;;;;;;18.80;14.53;;;11.90;99.90;14.00;97365.00;;;;5073451;28;20320;-70
2022/10/13 08:10:42;;;;;;;18.73;12.93;;;12.10;99.90;14.10;97360.00;;;;5060461;28;20199;-70
2022/10/13 08:13:30;;;;;;;18.80;13.37;;;12.30;99.90;14.50;97356.00;;;;5065318;28;20200;-70
2022/10/13 08:16:19;;;;;;;21.58;15.02;;;12.60;99.90;14.60;97355.00;;;;5063590;28;20391;-70
2022/10/13 08:19:09;;;;;;;17.97;13.17;;;12.70;99.90;14.80;97354.00;;;;5056652;28;20209;-70
2022/10/13 08:21:58;;;;;;;23.43;13.40;;;13.00;99.90;15.10;97354.00;;;;5061991;28;20200;-70
2022/10/13 08:24:47;;;;;;;18.90;12.93;;;13.20;99.90;15.40;97350.00;;;;5057357;28;20201;-70
2022/10/13 08:27:38;;;;;;;14.20;10.63;;;13.40;99.90;15.20;97338.00;;;;5059569;28;20272;-70
2022/10/13 08:30:37;;;;;;;16.85;12.93;;;13.60;99.90;15.50;97352.00;;;;5059244;28;20408;-71
2022/10/13 08:33:27;;;;;;;17.00;13.33;;;13.60;99.90;15.90;97349.00;;;;5055420;28;20414;-70
2022/10/13 08:36:18;;;;;;;15.43;11.37;;;14.00;99.90;16.30;97341.00;;;;5063719;28;20196;-69
2022/10/13 08:39:07;;;;;;;15.93;10.57;;;14.30;99.90;16.50;97332.00;;;;5064474;28;20200;-70
2022/10/13 08:41:57;;;;;;;12.23;10.30;;;14.50;99.90;16.60;97339.00;;;;5059969;28;20201;-70
2022/10/13 08:44:50;;;;;;;17.17;10.47;;;14.70;99.90;16.90;97340.00;;;;5060344;28;20307;-70
2022/10/13 08:48:02;;;;;;;19.70;11.13;;;14.80;99.90;17.10;97337.00;;;;5059313;28;20230;-69
2022/10/13 08:50:55;;;;;;;16.07;11.13;;;15.10;99.90;17.30;97343.00;;;;5067068;28;20235;-70
2022/10/13 08:53:47;;;;;;;13.27;10.20;;;15.30;99.90;17.50;97349.00;;;;5063631;28;20205;-70
2022/10/13 08:56:37;;;;;;;11.53;9.27;;;15.40;99.90;17.70;97338.00;;;;5059871;28;20250;-70
2022/10/13 08:59:25;;;;;;;23.17;12.33;;;15.60;99.90;17.90;97346.00;;;;5056722;28;20290;-70
2022/10/13 09:02:23;;;;;;;15.10;11.10;;;15.80;99.90;18.10;97349.00;;;;5061174;28;20245;-70
2022/10/13 09:05:21;;;;;;;14.53;9.83;;;16.00;99.90;18.20;97350.00;;;;5061386;28;20250;-70
2022/10/13 09:08:19;;;;;;;11.63;9.07;;;16.20;99.90;18.30;97353.00;;;;5066442;28;20309;-70
2022/10/13 09:11:12;;;;;;;14.73;9.13;;;16.30;99.90;17.90;97353.00;;;;5063086;28;20685;-70
2022/10/13 09:14:04;;;;;;;13.97;9.13;;;16.40;99.90;17.80;97345.00;;;;5059500;28;20756;-70
2022/10/13 09:16:54;;;;;;;12.50;9.57;;;16.50;99.90;18.10;97354.00;;;;5059941;28;20352;-70
2022/10/13 09:19:43;;;;;;;14.23;10.23;;;16.50;99.90;18.80;97338.00;;;;5058672;28;20204;-69
2022/10/13 09:22:34;;;;;;;13.80;9.63;;;16.60;99.90;19.00;97341.00;;;;5063033;28;20203;-70
2022/10/13 09:25:22;;;;;;;12.37;9.47;;;16.80;99.90;19.20;97336.00;;;;5067400;28;20549;-70
2022/10/13 09:28:19;;;;;;;13.27;10.13;;;17.00;99.90;19.10;97339.00;;;;5050965;28;20323;-70
2022/10/13 09:31:17;;;;;;;15.07;9.10;;;17.20;99.90;19.40;97337.00;;;;5059467;28;20231;-70
2022/10/13 09:34:16;;;;;;;15.43;10.50;;;17.30;99.90;19.20;97331.00;;;;5061777;28;20264;-70
2022/10/13 09:37:07;;;;;;;19.07;10.43;;;17.40;99.90;19.70;97334.00;;;;5066601;28;20683;-70
2022/10/13 09:40:13;;;;;;;12.93;10.37;;;17.60;99.90;20.00;97335.00;;;;5053707;28;20923;-69
2022/10/13 09:43:05;;;;;;;12.23;9.37;;;17.70;99.90;20.20;97324.00;;;;5070838;28;20199;-70
2022/10/13 09:45:56;;;;;;;16.07;10.33;;;18.00;99.90;20.60;97325.00;;;;5063266;28;20196;-70
2022/10/13 09:48:50;;;;;;;14.57;12.03;;;18.20;99.90;20.10;97326.00;;;;5061620;28;20311;-70
2022/10/13 09:51:42;;;;;;;19.83;12.23;;;18.30;99.90;19.90;97328.00;;;;5058969;28;20204;-69
2022/10/13 09:54:42;;;;;;;15.77;11.60;;;18.40;99.90;20.70;97318.00;;;;5061041;28;20204;-69
2022/10/13 09:57:39;;;;;;;20.23;15.03;;;18.60;99.90;20.50;97319.00;;;;5052348;28;20281;-69
2022/10/13 10:00:28;;;;;;;18.60;13.53;;;18.70;99.90;21.00;97323.00;;;;5063232;28;20217;-70
2022/10/13 10:03:24;;;;;;;15.70;11.70;;;18.90;99.90;20.90;97319.00;;;;5062900;28;20200;-69
2022/10/13 10:06:16;;;;;;;15.30;13.03;;;19.00;99.90;21.10;97311.00;;;;5066887;28;20241;-70
2022/10/13 10:09:22;;;;;;;14.37;12.50;;;19.10;99.90;21.40;97319.00;;;;5058315;28;20302;-69
2022/10/13 10:12:16;;;;;;;15.50;13.17;;;19.30;99.90;21.50;97306.00;;;;5063352;28;20245;-69
2022/10/13 10:15:21;;;;;;;19.23;13.37;;;19.50;99.90;21.60;97310.00;;;;5062099;28;20550;-69
2022/10/13 10:18:18;;;;;;;14.67;10.87;;;19.60;99.90;21.10;97302.00;;;;5054206;28;20250;-69
2022/10/13 10:21:13;;;;;;;15.73;12.90;;;19.70;99.90;20.90;97296.00;;;;5059091;28;20558;-69
2022/10/13 10:24:16;;;;;;;13.13;9.67;;;19.70;99.90;22.00;97297.00;;;;5067471;28;20215;-68
2022/10/13 10:27:12;;;;;;;14.03;10.70;;;19.90;99.90;22.00;97295.00;;;;5062028;28;20280;-68
2022/10/13 10:30:06;;;;;;;12.63;10.03;;;20.20;99.90;22.50;97291.00;;;;5053034;28;20287;-69
2022/10/13 10:33:03;;;;;;;13.33;9.97;;;20.50;99.90;23.00;97289.00;;;;5051687;28;20347;-69
2022/10/13 10:36:01;;;;;;;18.03;10.37;;;20.80;99.90;23.60;97284.00;;;;5060711;28;20289;-68
2022/10/13 10:38:54;;;;;;;17.87;10.33;;;21.20;99.90;23.90;97272.00;;;;5056427;28;20294;-69
2022/10/13 10:41:50;;;;;;;24.50;11.37;;;21.60;99.90;24.10;97281.00;;;;5056116;28;20220;-69
2022/10/13 10:44:42;;;;;;;12.40;9.83;;;22.00;99.90;24.20;97277.00;;;;5058223;28;20196;-69
2022/10/13 10:47:40;;;;;;;16.37;11.40;;;22.20;99.90;24.00;97272.00;;;;5069941;28;20219;-69
2022/10/13 10:50:32;;;;;;;20.97;11.13;;;22.40;99.90;24.20;97266.00;;;;5065116;28;20214;-70
2022/10/13 10:53:31;;;;;;;17.33;10.57;;;22.50;99.90;24.20;97260.00;;;;5058503;28;20255;-70
2022/10/13 10:56:30;;;;;;;14.10;11.13;;;22.70;99.90;24.60;97262.00;;;;5063088;28;20198;-70
2022/10/13 10:59:31;;;;;;;16.27;11.80;;;22.70;99.90;24.30;97261.00;;;;5056195;28;20562;-70
2022/10/13 11:02:41;;;;;;;13.47;9.47;;;22.90;99.90;25.10;97248.00;;;;5059991;28;20568;-70
2022/10/13 11:06:06;;;;;;;15.67;10.17;;;23.10;99.90;25.30;97243.00;;;;5060192;28;20870;-70
2022/10/13 11:08:57;;;;;;;14.03;9.73;;;23.40;99.40;24.20;97243.00;;;;5057886;28;20650;-69
2022/10/13 11:11:45;;;;;;;12.63;9.70;;;23.30;96.80;24.20;97236.00;;;;5057801;28;20697;-69
2022/10/13 11:14:35;;;;;;;15.23;9.50;;;23.20;96.40;23.50;97226.00;;;;5058907;28;20570;-69
2022/10/13 11:17:29;;;;;;;12.77;9.57;;;22.90;96.30;23.20;97231.00;;;;5060799;28;20277;-70
2022/10/13 11:20:58;;;;;;;10.90;9.60;;;22.80;95.20;23.60;97219.00;;;;5057079;28;20205;-69
2022/10/13 11:23:49;;;;;;;14.00;9.43;;;22.60;95.70;25.00;97224.00;;;;5054533;28;20588;-69
2022/10/13 11:26:45;;;;;;;16.13;9.27;;;22.80;96.70;22.70;97220.00;;;;5050386;28;20672;-71
2022/10/13 11:29:54;;;;;;;11.53;8.53;;;22.50;94.10;23.30;97214.00;;;;5052136;28;20235;-69
2022/10/13 11:32:54;;;;;;;15.33;8.80;;;22.30;94.50;24.50;97213.00;;;;5048380;28;20207;-69
2022/10/13 11:35:43;;;;;;;14.30;9.37;;;22.50;95.10;25.80;97213.00;;;;5050105;28;20840;-69
2022/10/13 11:38:37;;;;;;;14.60;9.07;;;22.90;96.40;26.60;97217.00;;;;5048439;28;20766;-69
2022/10/13 11:41:31;;;;;;;11.43;8.97;;;23.50;96.50;26.50;97210.00;;;;5061389;28;20207;-69
2022/10/13 11:44:31;;;;;;;15.00;9.30;;;24.10;93.30;27.40;97199.00;;;;5061416;28;20248;-69
2022/10/13 11:47:46;;;;;;;12.47;7.83;;;24.60;93.10;26.80;97201.00;;;;5060233;28;20306;-70
2022/10/13 11:50:40;;;;;;;12.97;9.53;;;24.90;92.20;26.80;97198.00;;;;5056830;28;20254;-68
2022/10/13 11:53:41;;;;;;;11.00;8.57;;;25.00;90.80;25.70;97191.00;;;;5056853;28;20218;-67
2022/10/13 11:56:37;;;;;;;14.97;9.43;;;24.80;89.70;26.30;97193.00;;;;5058157;28;20223;-70
2022/10/13 11:59:31;;;;;;;15.63;9.37;;;24.70;87.80;25.00;97191.00;;;;5059959;28;20219;-67
2022/10/13 12:02:21;;;;;;;11.30;7.97;;;24.50;88.60;24.60;97179.00;;;;5059284;28;20216;-69
2022/10/13 12:05:24;;;;;;;12.57;9.23;;;24.10;87.40;25.70;97177.00;;;;5061420;28;20199;-69
2022/10/13 12:08:12;;;;;;;11.33;7.60;;;23.70;90.10;25.70;97180.00;;;;5058716;28;20310;-67
2022/10/13 12:11:06;;;;;;;9.47;7.57;;;24.10;87.20;26.30;97168.00;;;;5062321;28;20319;-68
2022/10/13 12:13:55;;;;;;;11.63;7.70;;;24.30;88.10;24.20;97165.00;;;;5060389;28;20199;-72
2022/10/13 12:16:54;;;;;;;8.27;7.47;;;24.10;86.30;23.50;97160.00;;;;5061522;28;20197;-73
2022/10/13 12:19:43;;;;;;;8.80;7.90;;;23.50;84.20;25.70;97162.00;;;;5061014;28;20240;-68
2022/10/13 12:22:32;;;;;;;10.80;7.47;;;23.50;87.20;26.40;97154.00;;;;5060596;28;20208;-70
2022/10/13 12:25:26;;;;;;;10.17;7.63;;;24.00;89.00;28.00;97159.00;;;;5056591;28;20210;-70
2022/10/13 12:28:19;;;;;;;8.93;7.20;;;24.60;90.20;28.90;97155.00;;;;5061173;28;20255;-70
2022/10/13 12:31:20;;;;;;;9.70;6.80;;;25.50;89.30;27.10;97152.00;;;;5058942;28;20249;-70
2022/10/13 12:34:21;;;;;;;10.55;7.50;;;26.10;81.50;27.40;97159.00;;;;5064158;28;20702;-73